Terminal Aerodrome Forecast
Issued by NWS

Home | Current Version | Previous Version | Text Only | Print | Product List | Glossary On
Versions: 1 2 3 4 5 6 7 8 9 10 11 12 13 14 15 16 17
000
FTUS44 KBMX 092300 CCA
TAFTCL
TAF COR
KTCL 092351Z 1000/1024 25004KT P6SM VCTS SCT035 BKN050CB
     FM100200 00000KT P6SM BKN150
      TEMPO 1009/1013 5SM BR
     FM101500 32005KT P6SM BKN050=

USA.gov is the U.S. government's official web portal to all federal, state and local government web resources and services.